RYR156P EICK-EGPH
Flight info
| Callsign | RYR156P |
|---|---|
| Flight time | 1h 5m |
| Altitude | 37000 |
| Route | TISMO1N TISMO DCT DUB DCT ROTEV DCT GOTNA DCT BLACA P600 TUNSO |
| Aircraft | B738/M-SDE3FGILRWY/SB1 |
Departure
| Time | 2026-05-04 16:48 |
|---|---|
| Airport | Cork International Airport (EICK) |
Arrival
| Time | 2026-05-04 17:54 |
|---|---|
| Airport | Edinburgh Airport (EGPH) |
| Time | Latitude | Longitude | Altitude | Speed | Heading |
|---|---|---|---|---|---|
| 2026-05-04 16:20 | 51.84933 | -8.49124 | 503 ft | 0 kts | 70° |
| 2026-05-04 16:39 | 51.84924 | -8.49163 | 503 ft | 4 kts | 75° |
| 2026-05-04 16:39 | 51.84921 | -8.49248 | 503 ft | 4 kts | 113° |
| 2026-05-04 16:40 | 51.84937 | -8.49273 | 503 ft | 0 kts | 166° |
| 2026-05-04 16:43 | 51.84918 | -8.49265 | 503 ft | 5 kts | 165° |
| 2026-05-04 16:43 | 51.84837 | -8.49239 | 503 ft | 6 kts | 202° |
| 2026-05-04 16:43 | 51.84807 | -8.49294 | 503 ft | 7 kts | 244° |
| 2026-05-04 16:44 | 51.84638 | -8.49411 | 503 ft | 12 kts | 160° |
| 2026-05-04 16:45 | 51.84340 | -8.49236 | 503 ft | 31 kts | 160° |
| 2026-05-04 16:46 | 51.83734 | -8.48874 | 503 ft | 32 kts | 163° |
| 2026-05-04 16:46 | 51.83354 | -8.48648 | 503 ft | 12 kts | 158° |
| 2026-05-04 16:47 | 51.83250 | -8.48554 | 503 ft | 6 kts | 251° |
| 2026-05-04 16:47 | 51.83339 | -8.48645 | 503 ft | 23 kts | 338° |
| 2026-05-04 16:48 | 51.85437 | -8.49956 | 1402 ft | 130 kts | 334° |
| 2026-05-04 16:48 | 51.86290 | -8.50618 | 1776 ft | 154 kts | 347° |
| 2026-05-04 16:49 | 51.88647 | -8.50895 | 2273 ft | 194 kts | 0° |
| 2026-05-04 16:49 | 51.91440 | -8.51872 | 2450 ft | 219 kts | 340° |
| 2026-05-04 16:50 | 51.94529 | -8.52412 | 2739 ft | 242 kts | 27° |
| 2026-05-04 16:50 | 51.96566 | -8.47986 | 3529 ft | 252 kts | 59° |
| 2026-05-04 16:51 | 51.98269 | -8.42988 | 4358 ft | 256 kts | 58° |
| 2026-05-04 16:51 | 51.99160 | -8.40455 | 4759 ft | 261 kts | 58° |
| 2026-05-04 16:51 | 52.01000 | -8.35339 | 5774 ft | 267 kts | 58° |
| 2026-05-04 16:52 | 52.02907 | -8.30125 | 6625 ft | 270 kts | 58° |
| 2026-05-04 16:52 | 52.03872 | -8.27500 | 7013 ft | 272 kts | 58° |
| 2026-05-04 16:53 | 52.05826 | -8.22193 | 7826 ft | 275 kts | 58° |
| 2026-05-04 16:53 | 52.08805 | -8.14099 | 9056 ft | 280 kts | 58° |
| 2026-05-04 16:54 | 52.09810 | -8.11368 | 9452 ft | 283 kts | 58° |
| 2026-05-04 16:55 | 52.14203 | -8.00305 | 10373 ft | 308 kts | 39° |
| 2026-05-04 16:55 | 52.17720 | -7.96040 | 10504 ft | 322 kts | 35° |
| 2026-05-04 16:56 | 52.21376 | -7.91729 | 10606 ft | 331 kts | 35° |
| 2026-05-04 16:56 | 52.27008 | -7.84992 | 10933 ft | 335 kts | 36° |
| 2026-05-04 16:57 | 52.28876 | -7.82738 | 11131 ft | 335 kts | 36° |
| 2026-05-04 16:57 | 52.32641 | -7.78177 | 11476 ft | 336 kts | 36° |
| 2026-05-04 16:58 | 52.38324 | -7.71267 | 12876 ft | 346 kts | 36° |
| 2026-05-04 16:58 | 52.40240 | -7.68931 | 13942 ft | 343 kts | 36° |
| 2026-05-04 16:59 | 52.44143 | -7.64163 | 15407 ft | 355 kts | 37° |
| 2026-05-04 17:00 | 52.52181 | -7.54310 | 18626 ft | 368 kts | 37° |
| 2026-05-04 17:00 | 52.58413 | -7.46639 | 20678 ft | 378 kts | 37° |
| 2026-05-04 17:01 | 52.62656 | -7.41401 | 22058 ft | 383 kts | 37° |
| 2026-05-04 17:01 | 52.66946 | -7.36091 | 23393 ft | 389 kts | 37° |
| 2026-05-04 17:02 | 52.71303 | -7.30684 | 24510 ft | 394 kts | 38° |
| 2026-05-04 17:02 | 52.75698 | -7.25217 | 25579 ft | 398 kts | 38° |
| 2026-05-04 17:03 | 52.77914 | -7.22455 | 26086 ft | 400 kts | 38° |
| 2026-05-04 17:03 | 52.80142 | -7.19673 | 26527 ft | 404 kts | 37° |
| 2026-05-04 17:03 | 52.84655 | -7.14029 | 27346 ft | 412 kts | 37° |
| 2026-05-04 17:04 | 52.89235 | -7.08287 | 28353 ft | 415 kts | 37° |
| 2026-05-04 17:04 | 52.93863 | -7.02468 | 29235 ft | 420 kts | 38° |
| 2026-05-04 17:05 | 52.98538 | -6.96573 | 30017 ft | 425 kts | 38° |
| 2026-05-04 17:05 | 53.03260 | -6.90602 | 30777 ft | 427 kts | 38° |
| 2026-05-04 17:06 | 53.07853 | -6.84778 | 31518 ft | 428 kts | 37° |
| 2026-05-04 17:06 | 53.10234 | -6.81753 | 31753 ft | 432 kts | 38° |
| 2026-05-04 17:07 | 53.14999 | -6.75685 | 32722 ft | 428 kts | 38° |
| 2026-05-04 17:07 | 53.16558 | -6.73696 | 33046 ft | 427 kts | 38° |
| 2026-05-04 17:07 | 53.19717 | -6.69660 | 33555 ft | 428 kts | 38° |
| 2026-05-04 17:07 | 53.22076 | -6.66641 | 33934 ft | 428 kts | 38° |
| 2026-05-04 17:08 | 53.24434 | -6.63619 | 34337 ft | 427 kts | 38° |
| 2026-05-04 17:08 | 53.29139 | -6.57577 | 34968 ft | 427 kts | 38° |
| 2026-05-04 17:08 | 53.31492 | -6.54548 | 35261 ft | 428 kts | 38° |
| 2026-05-04 17:09 | 53.33852 | -6.51505 | 35576 ft | 428 kts | 38° |
| 2026-05-04 17:09 | 53.36212 | -6.48459 | 35910 ft | 428 kts | 38° |
| 2026-05-04 17:09 | 53.38569 | -6.45413 | 36192 ft | 429 kts | 38° |
| 2026-05-04 17:10 | 53.43291 | -6.39295 | 36788 ft | 429 kts | 38° |
| 2026-05-04 17:10 | 53.50688 | -6.30694 | 37078 ft | 436 kts | 25° |
| 2026-05-04 17:11 | 53.56436 | -6.27549 | 37072 ft | 432 kts | 15° |
| 2026-05-04 17:12 | 53.65066 | -6.23826 | 37082 ft | 428 kts | 15° |
| 2026-05-04 17:13 | 53.78457 | -6.17796 | 37072 ft | 428 kts | 15° |
| 2026-05-04 17:14 | 53.89973 | -6.12537 | 37074 ft | 430 kts | 15° |
| 2026-05-04 17:15 | 53.98655 | -6.08555 | 37075 ft | 431 kts | 15° |
| 2026-05-04 17:15 | 54.04313 | -6.05634 | 37008 ft | 413 kts | 24° |
| 2026-05-04 17:16 | 54.09358 | -6.01515 | 36679 ft | 395 kts | 26° |
| 2026-05-04 17:16 | 54.16705 | -5.95350 | 35318 ft | 390 kts | 25° |
| 2026-05-04 17:17 | 54.19141 | -5.93332 | 34883 ft | 388 kts | 25° |
| 2026-05-04 17:17 | 54.26404 | -5.87342 | 33519 ft | 384 kts | 25° |
| 2026-05-04 17:18 | 54.28808 | -5.85359 | 33035 ft | 383 kts | 25° |
| 2026-05-04 17:18 | 54.33589 | -5.81407 | 32104 ft | 382 kts | 25° |
| 2026-05-04 17:19 | 54.38380 | -5.77435 | 31098 ft | 384 kts | 24° |
| 2026-05-04 17:19 | 54.43196 | -5.73432 | 30122 ft | 386 kts | 24° |
| 2026-05-04 17:20 | 54.48027 | -5.69407 | 29002 ft | 386 kts | 24° |
| 2026-05-04 17:20 | 54.52849 | -5.65378 | 27903 ft | 385 kts | 24° |
| 2026-05-04 17:20 | 54.55261 | -5.63359 | 27392 ft | 384 kts | 24° |
| 2026-05-04 17:21 | 54.59960 | -5.59102 | 26521 ft | 380 kts | 33° |
| 2026-05-04 17:21 | 54.63928 | -5.53286 | 25770 ft | 375 kts | 40° |
| 2026-05-04 17:22 | 54.65862 | -5.50293 | 25381 ft | 372 kts | 40° |
| 2026-05-04 17:22 | 54.67788 | -5.47318 | 25013 ft | 370 kts | 40° |
| 2026-05-04 17:23 | 54.73516 | -5.38548 | 23923 ft | 363 kts | 40° |
| 2026-05-04 17:23 | 54.75407 | -5.35663 | 23540 ft | 362 kts | 40° |
| 2026-05-04 17:23 | 54.79155 | -5.29936 | 22750 ft | 356 kts | 40° |
| 2026-05-04 17:24 | 54.80998 | -5.27114 | 22382 ft | 353 kts | 40° |
| 2026-05-04 17:24 | 54.86450 | -5.18750 | 21304 ft | 345 kts | 39° |
| 2026-05-04 17:25 | 54.88281 | -5.16082 | 20942 ft | 341 kts | 33° |
| 2026-05-04 17:25 | 54.92363 | -5.12267 | 20305 ft | 333 kts | 23° |
| 2026-05-04 17:26 | 54.96540 | -5.08735 | 19594 ft | 330 kts | 23° |
| 2026-05-04 17:26 | 55.02654 | -5.03465 | 18561 ft | 326 kts | 23° |
| 2026-05-04 17:27 | 55.06703 | -4.99941 | 17801 ft | 324 kts | 23° |
| 2026-05-04 17:27 | 55.10613 | -4.96123 | 17044 ft | 325 kts | 41° |
| 2026-05-04 17:28 | 55.12922 | -4.89391 | 16747 ft | 332 kts | 64° |
| 2026-05-04 17:29 | 55.15693 | -4.77933 | 16129 ft | 343 kts | 65° |
| 2026-05-04 17:29 | 55.18885 | -4.66937 | 15534 ft | 336 kts | 55° |
| 2026-05-04 17:30 | 55.22672 | -4.56606 | 14943 ft | 337 kts | 55° |
| 2026-05-04 17:31 | 55.25164 | -4.49669 | 14555 ft | 335 kts | 56° |
| 2026-05-04 17:31 | 55.28835 | -4.39284 | 13977 ft | 333 kts | 56° |
| 2026-05-04 17:32 | 55.31256 | -4.32382 | 13577 ft | 332 kts | 56° |
| 2026-05-04 17:33 | 55.34852 | -4.22080 | 13069 ft | 328 kts | 56° |
| 2026-05-04 17:33 | 55.36037 | -4.18675 | 13058 ft | 324 kts | 56° |
| 2026-05-04 17:34 | 55.39369 | -4.09064 | 13035 ft | 288 kts | 56° |
| 2026-05-04 17:34 | 55.40388 | -4.06116 | 13034 ft | 276 kts | 56° |
| 2026-05-04 17:35 | 55.43278 | -3.97758 | 12335 ft | 270 kts | 56° |
| 2026-05-04 17:35 | 55.45250 | -3.92046 | 11498 ft | 281 kts | 56° |
| 2026-05-04 17:35 | 55.46274 | -3.89072 | 11079 ft | 286 kts | 56° |
| 2026-05-04 17:36 | 55.47328 | -3.86005 | 10652 ft | 292 kts | 56° |
| 2026-05-04 17:36 | 55.48383 | -3.82930 | 10421 ft | 295 kts | 56° |
| 2026-05-04 17:36 | 55.49454 | -3.79805 | 10206 ft | 308 kts | 57° |
| 2026-05-04 17:36 | 55.50594 | -3.76476 | 9961 ft | 315 kts | 57° |
| 2026-05-04 17:37 | 55.51709 | -3.73210 | 9700 ft | 314 kts | 57° |
| 2026-05-04 17:37 | 55.52821 | -3.69944 | 9425 ft | 308 kts | 57° |
| 2026-05-04 17:37 | 55.53917 | -3.66721 | 9137 ft | 304 kts | 57° |
| 2026-05-04 17:37 | 55.54999 | -3.63539 | 8885 ft | 299 kts | 57° |
| 2026-05-04 17:38 | 55.56063 | -3.60406 | 8612 ft | 296 kts | 57° |
| 2026-05-04 17:38 | 55.57116 | -3.57303 | 8353 ft | 291 kts | 57° |
| 2026-05-04 17:38 | 55.58137 | -3.54287 | 8079 ft | 281 kts | 57° |
| 2026-05-04 17:38 | 55.59125 | -3.51367 | 7800 ft | 274 kts | 57° |
| 2026-05-04 17:39 | 55.61095 | -3.45543 | 7327 ft | 279 kts | 57° |
| 2026-05-04 17:39 | 55.62093 | -3.42585 | 7104 ft | 279 kts | 57° |
| 2026-05-04 17:39 | 55.63076 | -3.39665 | 7033 ft | 273 kts | 57° |
| 2026-05-04 17:40 | 55.64044 | -3.36786 | 7014 ft | 270 kts | 57° |
| 2026-05-04 17:40 | 55.65000 | -3.33943 | 6889 ft | 273 kts | 57° |
| 2026-05-04 17:40 | 55.65969 | -3.31059 | 6654 ft | 272 kts | 57° |
| 2026-05-04 17:40 | 55.66939 | -3.28167 | 6301 ft | 275 kts | 57° |
| 2026-05-04 17:41 | 55.67918 | -3.25245 | 6071 ft | 273 kts | 57° |
| 2026-05-04 17:41 | 55.68879 | -3.22370 | 6018 ft | 271 kts | 57° |
| 2026-05-04 17:41 | 55.69841 | -3.19490 | 6025 ft | 272 kts | 57° |
| 2026-05-04 17:41 | 55.70806 | -3.16610 | 6015 ft | 272 kts | 55° |
| 2026-05-04 17:42 | 55.72101 | -3.14243 | 5990 ft | 266 kts | 25° |
| 2026-05-04 17:42 | 55.73809 | -3.13208 | 5999 ft | 257 kts | 9° |
| 2026-05-04 17:42 | 55.75495 | -3.12145 | 6006 ft | 258 kts | 22° |
| 2026-05-04 17:42 | 55.77120 | -3.10847 | 5987 ft | 255 kts | 20° |
| 2026-05-04 17:43 | 55.78731 | -3.09586 | 5914 ft | 258 kts | 20° |
| 2026-05-04 17:43 | 55.80397 | -3.08291 | 5628 ft | 254 kts | 20° |
| 2026-05-04 17:43 | 55.81971 | -3.07076 | 5369 ft | 246 kts | 20° |
| 2026-05-04 17:43 | 55.83512 | -3.05867 | 5102 ft | 239 kts | 20° |
| 2026-05-04 17:44 | 55.85001 | -3.04758 | 4867 ft | 225 kts | 14° |
| 2026-05-04 17:44 | 55.86455 | -3.04009 | 4601 ft | 212 kts | 12° |
| 2026-05-04 17:44 | 55.87872 | -3.03321 | 4323 ft | 208 kts | 11° |
| 2026-05-04 17:44 | 55.89252 | -3.02641 | 4070 ft | 203 kts | 11° |
| 2026-05-04 17:45 | 55.90149 | -3.02199 | 3903 ft | 201 kts | 12° |
| 2026-05-04 17:45 | 55.91942 | -3.01331 | 3557 ft | 199 kts | 11° |
| 2026-05-04 17:45 | 55.93270 | -3.00666 | 3297 ft | 197 kts | 11° |
| 2026-05-04 17:45 | 55.94586 | -3.00003 | 3064 ft | 194 kts | 11° |
| 2026-05-04 17:46 | 55.95862 | -2.99356 | 3004 ft | 190 kts | 11° |
| 2026-05-04 17:46 | 55.97131 | -2.99286 | 2988 ft | 179 kts | 338° |
| 2026-05-04 17:46 | 55.98293 | -3.00067 | 3007 ft | 178 kts | 336° |
| 2026-05-04 17:46 | 55.99419 | -3.00796 | 2993 ft | 166 kts | 336° |
| 2026-05-04 17:47 | 56.00478 | -3.01476 | 2980 ft | 162 kts | 336° |
| 2026-05-04 17:47 | 56.01543 | -3.02155 | 2989 ft | 162 kts | 336° |
| 2026-05-04 17:47 | 56.02604 | -3.02829 | 2990 ft | 162 kts | 336° |
| 2026-05-04 17:47 | 56.03664 | -3.03508 | 2997 ft | 161 kts | 336° |
| 2026-05-04 17:48 | 56.04679 | -3.04321 | 2979 ft | 159 kts | 317° |
| 2026-05-04 17:48 | 56.05061 | -3.06031 | 2992 ft | 154 kts | 262° |
| 2026-05-04 17:48 | 56.04600 | -3.07766 | 3001 ft | 155 kts | 249° |
| 2026-05-04 17:48 | 56.04196 | -3.09558 | 3006 ft | 156 kts | 252° |
| 2026-05-04 17:49 | 56.03742 | -3.11326 | 2997 ft | 157 kts | 247° |
| 2026-05-04 17:49 | 56.03223 | -3.13024 | 3001 ft | 153 kts | 245° |
| 2026-05-04 17:49 | 56.02687 | -3.14651 | 2845 ft | 153 kts | 244° |
| 2026-05-04 17:49 | 56.02147 | -3.16249 | 2666 ft | 148 kts | 243° |
| 2026-05-04 17:50 | 56.01623 | -3.17788 | 2481 ft | 142 kts | 243° |
| 2026-05-04 17:50 | 56.01125 | -3.19243 | 2272 ft | 132 kts | 244° |
| 2026-05-04 17:50 | 56.00650 | -3.20641 | 2158 ft | 131 kts | 244° |
| 2026-05-04 17:50 | 56.00184 | -3.22006 | 1952 ft | 127 kts | 244° |
| 2026-05-04 17:51 | 55.99737 | -3.23316 | 1768 ft | 120 kts | 244° |
| 2026-05-04 17:51 | 55.99306 | -3.24586 | 1601 ft | 120 kts | 244° |
| 2026-05-04 17:51 | 55.98873 | -3.25858 | 1449 ft | 122 kts | 244° |
| 2026-05-04 17:51 | 55.98429 | -3.27162 | 1270 ft | 124 kts | 242° |
| 2026-05-04 17:52 | 55.97987 | -3.28460 | 1101 ft | 122 kts | 242° |
| 2026-05-04 17:52 | 55.97542 | -3.29769 | 936 ft | 124 kts | 243° |
| 2026-05-04 17:52 | 55.97102 | -3.31063 | 752 ft | 121 kts | 242° |
| 2026-05-04 17:52 | 55.96666 | -3.32345 | 587 ft | 119 kts | 242° |
| 2026-05-04 17:53 | 55.96239 | -3.33603 | 435 ft | 118 kts | 242° |
| 2026-05-04 17:53 | 55.95812 | -3.34857 | 265 ft | 118 kts | 242° |
| 2026-05-04 17:53 | 55.95390 | -3.36101 | 126 ft | 116 kts | 242° |
| 2026-05-04 17:53 | 55.95020 | -3.37218 | 104 ft | 88 kts | 236° |
| 2026-05-04 17:54 | 55.94836 | -3.37739 | 106 ft | 35 kts | 240° |
| 2026-05-04 17:54 | 55.94741 | -3.38008 | 108 ft | 17 kts | 229° |
| 2026-05-04 17:54 | 55.94656 | -3.38011 | 106 ft | 6 kts | 146° |
| 2026-05-04 17:54 | 55.94646 | -3.37999 | 106 ft | 2 kts | 147° |
| 2026-05-04 17:55 | 55.94618 | -3.37965 | 106 ft | 8 kts | 143° |
| 2026-05-04 17:55 | 55.94601 | -3.37881 | 106 ft | 8 kts | 69° |
| 2026-05-04 17:55 | 55.94625 | -3.37793 | 104 ft | 8 kts | 63° |
| 2026-05-04 17:55 | 55.94651 | -3.37709 | 106 ft | 8 kts | 60° |
| 2026-05-04 17:56 | 55.94677 | -3.37630 | 106 ft | 7 kts | 58° |
| 2026-05-04 17:56 | 55.94704 | -3.37553 | 106 ft | 7 kts | 59° |
| 2026-05-04 17:56 | 55.94731 | -3.37471 | 105 ft | 8 kts | 59° |
| 2026-05-04 17:56 | 55.94760 | -3.37385 | 105 ft | 8 kts | 58° |
| 2026-05-04 17:57 | 55.94789 | -3.37301 | 106 ft | 8 kts | 59° |
| 2026-05-04 17:57 | 55.94816 | -3.37220 | 105 ft | 8 kts | 59° |
| 2026-05-04 17:57 | 55.94843 | -3.37142 | 106 ft | 7 kts | 58° |
| 2026-05-04 17:57 | 55.94869 | -3.37066 | 106 ft | 7 kts | 59° |
| 2026-05-04 17:58 | 55.94894 | -3.36993 | 106 ft | 6 kts | 59° |
| 2026-05-04 17:58 | 55.94901 | -3.36972 | 104 ft | 0 kts | 58° |
| 2026-05-04 17:58 | 55.94903 | -3.36967 | 105 ft | 1 kts | 58° |
| 2026-05-04 17:58 | 55.94903 | -3.36965 | 105 ft | 0 kts | 58° |
| 2026-05-04 18:00 | 55.94904 | -3.36965 | 106 ft | 0 kts | 58° |
| 2026-05-04 18:01 | 55.94904 | -3.36964 | 106 ft | 0 kts | 58° |
| 2026-05-04 18:01 | 55.94904 | -3.36963 | 106 ft | 0 kts | 58° |